createdAt,value
2023-05-24T18:03:04.399Z,8.57
2023-05-24T18:05:31.270Z,9.20
2023-05-24T18:08:01.043Z,9.73
2023-05-24T18:10:27.632Z,9.98
2023-05-24T18:12:54.277Z,9.48
2023-05-24T18:15:21.326Z,8.88
2023-05-24T18:17:47.936Z,9.10
2023-05-24T18:20:15.322Z,9.18
2023-05-24T18:22:42.035Z,9.05
2023-05-24T18:25:08.813Z,10.00
2023-05-24T18:27:35.584Z,8.60
2023-05-24T18:30:02.286Z,8.20
2023-05-24T18:32:28.949Z,9.15
2023-05-24T18:34:57.005Z,8.77
2023-05-24T18:37:23.542Z,10.00
2023-05-24T18:39:50.097Z,9.50
2023-05-24T18:42:16.763Z,9.65
2023-05-24T18:44:43.297Z,9.80
2023-05-24T18:47:10.329Z,8.88
2023-05-24T18:49:37.137Z,8.48
2023-05-24T18:52:06.593Z,9.90
2023-05-24T18:54:33.433Z,9.43
2023-05-24T18:57:03.106Z,8.65
2023-05-24T18:59:31.608Z,8.27
2023-05-24T19:01:58.405Z,9.52
2023-05-24T19:04:26.577Z,9.52
2023-05-24T19:06:53.206Z,9.68
2023-05-24T19:09:19.802Z,9.50
2023-05-24T19:11:47.728Z,9.15
2023-05-24T19:14:14.395Z,8.63
2023-05-24T19:16:41.045Z,9.38
2023-05-24T19:19:07.728Z,9.40
2023-05-24T19:21:34.222Z,8.95
2023-05-24T19:24:00.834Z,10.38
2023-05-24T19:26:27.374Z,10.57
2023-05-24T19:28:54.253Z,10.90
2023-05-24T19:31:23.561Z,9.65
2023-05-24T19:33:59.905Z,10.18
2023-05-24T19:36:28.499Z,10.52
2023-05-24T19:38:55.077Z,10.95
2023-05-24T19:41:21.868Z,11.77
2023-05-24T19:43:48.596Z,11.43
2023-05-24T19:46:15.313Z,10.13
2023-05-24T19:48:42.408Z,10.40
2023-05-24T19:51:09.113Z,9.73
2023-05-24T19:53:35.765Z,10.25
2023-05-24T19:56:02.608Z,10.85
2023-05-24T19:58:30.393Z,10.05
2023-05-24T20:00:56.969Z,9.70
2023-05-24T20:03:24.706Z,9.82
2023-05-24T20:05:51.564Z,9.85
2023-05-24T20:08:20.104Z,10.68
2023-05-24T20:10:48.864Z,9.75
2023-05-24T20:13:15.378Z,10.02
2023-05-24T20:15:42.227Z,9.90
2023-05-24T20:18:09.045Z,10.23
2023-05-24T20:20:35.955Z,9.73
2023-05-24T20:23:02.834Z,9.93
2023-05-24T20:25:29.695Z,9.82
2023-05-24T20:27:56.576Z,10.70
2023-05-24T20:30:24.037Z,11.10
2023-05-24T20:32:50.754Z,10.80
2023-05-24T20:35:17.523Z,10.60
2023-05-24T20:37:44.132Z,10.35
2023-05-24T20:40:12.200Z,9.73
2023-05-24T20:42:39.015Z,9.93
2023-05-24T20:45:06.470Z,9.20
2023-05-24T20:47:33.254Z,9.93
2023-05-24T20:50:00.097Z,9.65
2023-05-24T20:52:26.904Z,9.07
2023-05-24T20:54:53.675Z,10.05
2023-05-24T20:57:20.696Z,9.98
2023-05-24T20:59:47.369Z,10.18
2023-05-24T21:02:14.126Z,9.73
2023-05-24T21:04:40.759Z,10.90
2023-05-24T21:07:08.112Z,10.52
2023-05-24T21:09:36.468Z,10.32
2023-05-24T21:12:03.398Z,10.75
2023-05-24T21:14:30.487Z,10.07
2023-05-24T21:16:57.135Z,10.02
2023-05-24T21:19:23.820Z,10.70
2023-05-24T21:21:50.781Z,9.55
2023-05-24T21:24:17.591Z,9.70
2023-05-24T21:26:44.414Z,10.65
2023-05-24T21:29:13.216Z,11.45
2023-05-24T21:31:40.870Z,11.05
2023-05-24T21:34:07.612Z,12.85
2023-05-24T21:36:34.467Z,13.20
2023-05-24T21:39:03.931Z,13.25
2023-05-24T21:41:30.648Z,12.88
2023-05-24T21:43:57.298Z,13.20
2023-05-24T21:46:24.041Z,13.65
2023-05-24T21:48:50.736Z,13.77
2023-05-24T21:51:17.476Z,15.18
2023-05-24T21:53:44.172Z,15.13
2023-05-24T21:56:10.993Z,15.02
2023-05-24T21:58:38.103Z,17.05
2023-05-24T22:01:04.959Z,14.57
2023-05-24T22:03:31.711Z,14.88
2023-05-24T22:05:58.439Z,14.80
2023-05-24T22:08:25.182Z,14.43
2023-05-24T22:10:51.993Z,14.15
2023-05-24T22:13:18.612Z,14.48
2023-05-24T22:15:45.623Z,15.23
2023-05-24T22:18:12.861Z,14.77
2023-05-24T22:20:40.921Z,14.57
2023-05-24T22:23:08.051Z,14.90
2023-05-24T22:25:36.001Z,13.18
2023-05-24T22:28:02.530Z,13.05
2023-05-24T22:30:30.147Z,13.98
2023-05-24T22:32:56.769Z,14.40
2023-05-24T22:35:23.424Z,14.80
2023-05-24T22:37:50.082Z,14.18
2023-05-24T22:40:17.468Z,14.52
2023-05-24T22:42:44.236Z,12.93
2023-05-24T22:45:10.996Z,13.15
2023-05-24T22:47:40.010Z,12.23
2023-05-24T22:50:07.534Z,12.13
2023-05-24T22:52:34.134Z,13.23
2023-05-24T22:55:01.282Z,13.95
2023-05-24T22:57:28.047Z,14.30
2023-05-24T22:59:54.702Z,15.65
2023-05-24T23:02:21.518Z,14.75
2023-05-24T23:04:48.434Z,14.50
2023-05-24T23:07:15.539Z,13.48
2023-05-24T23:09:42.940Z,14.25
2023-05-24T23:12:09.580Z,14.18
2023-05-24T23:14:41.519Z,14.00
2023-05-24T23:17:10.478Z,11.95
2023-05-24T23:19:43.046Z,12.65
2023-05-24T23:22:12.715Z,13.65
2023-05-24T23:24:39.725Z,13.50
2023-05-24T23:27:06.644Z,12.10
2023-05-24T23:29:33.557Z,11.68
2023-05-24T23:32:00.538Z,11.48
2023-05-24T23:34:27.260Z,10.23
2023-05-24T23:36:53.862Z,11.05
2023-05-24T23:39:20.481Z,10.77
2023-05-24T23:41:46.969Z,11.05
2023-05-24T23:44:13.511Z,10.60
2023-05-24T23:46:40.704Z,11.32
2023-05-24T23:49:07.361Z,11.35
2023-05-24T23:51:34.015Z,10.70
2023-05-24T23:54:00.965Z,10.18
2023-05-24T23:56:27.554Z,11.50
2023-05-24T23:58:54.126Z,11.48
